createdAt,value
2018-07-09T00:00:44.263Z,4.03
2018-07-09T00:03:14.179Z,3.43
2018-07-09T00:05:43.345Z,4.23
2018-07-09T00:08:12.193Z,3.43
2018-07-09T00:10:52.378Z,3.80
2018-07-09T00:13:20.735Z,3.70
2018-07-09T00:15:48.592Z,4.10
2018-07-09T00:18:16.379Z,4.57
2018-07-09T00:20:44.590Z,3.87
2018-07-09T00:23:12.377Z,4.43
2018-07-09T00:25:40.179Z,3.90
2018-07-09T00:28:07.850Z,4.23
2018-07-09T00:30:35.703Z,4.20
2018-07-09T00:33:03.500Z,4.37
2018-07-09T00:35:31.286Z,4.70
2018-07-09T00:37:59.047Z,4.40
2018-07-09T00:40:26.849Z,4.60
2018-07-09T00:42:54.679Z,4.77
2018-07-09T00:45:22.438Z,5.00
2018-07-09T00:47:50.887Z,4.40
2018-07-09T00:50:18.750Z,4.77
2018-07-09T00:52:46.611Z,4.67
2018-07-09T00:55:14.324Z,4.90
2018-07-09T00:57:42.375Z,4.70
2018-07-09T01:00:10.659Z,4.70
2018-07-09T01:02:38.538Z,4.90
2018-07-09T01:05:06.614Z,5.10
2018-07-09T01:07:34.388Z,5.13
2018-07-09T01:10:02.328Z,4.77
2018-07-09T01:12:30.054Z,5.00
2018-07-09T01:14:57.830Z,4.90
2018-07-09T01:17:25.584Z,4.83
2018-07-09T01:19:53.323Z,5.70
2018-07-09T01:22:21.093Z,5.30
2018-07-09T01:24:48.914Z,5.27
2018-07-09T01:27:16.740Z,5.80
2018-07-09T01:29:44.499Z,6.20
2018-07-09T01:32:12.187Z,6.07
2018-07-09T01:34:39.892Z,5.80
2018-07-09T01:37:07.731Z,4.83
2018-07-09T01:39:35.573Z,5.77
2018-07-09T01:42:03.453Z,5.13
2018-07-09T01:44:31.237Z,5.70
2018-07-09T01:46:58.998Z,5.10
2018-07-09T01:49:26.811Z,5.80
2018-07-09T01:51:54.602Z,5.30
2018-07-09T01:54:22.406Z,6.20
2018-07-09T01:56:50.203Z,6.10
2018-07-09T01:59:17.952Z,5.60
2018-07-09T02:01:45.688Z,6.23
2018-07-09T02:04:13.521Z,6.87
2018-07-09T02:06:41.305Z,5.80
2018-07-09T02:09:09.322Z,6.60
2018-07-09T02:11:37.923Z,6.13
2018-07-09T02:14:05.718Z,6.83
2018-07-09T02:16:33.495Z,7.33
2018-07-09T02:19:01.255Z,6.40
2018-07-09T02:21:29.414Z,6.93
2018-07-09T02:23:57.230Z,6.20
2018-07-09T02:26:25.320Z,7.03
2018-07-09T02:28:53.097Z,7.07
2018-07-09T02:31:20.772Z,7.10
2018-07-09T02:33:48.604Z,6.00
2018-07-09T02:36:16.673Z,6.80
2018-07-09T02:38:44.403Z,6.03
2018-07-09T02:41:12.239Z,7.63
2018-07-09T02:43:39.966Z,7.40
2018-07-09T02:46:07.697Z,7.10
2018-07-09T02:48:35.495Z,7.77
2018-07-09T02:51:03.263Z,6.70
2018-07-09T02:53:30.974Z,7.67
2018-07-09T02:55:58.898Z,7.43
2018-07-09T02:58:26.645Z,7.50
2018-07-09T03:00:54.499Z,8.50
2018-07-09T03:03:22.269Z,7.73
2018-07-09T03:05:50.050Z,7.57
2018-07-09T03:08:17.764Z,7.63
2018-07-09T03:10:45.538Z,7.03
2018-07-09T03:13:13.347Z,7.30
2018-07-09T03:15:41.053Z,7.77
2018-07-09T03:18:08.777Z,7.73
2018-07-09T03:20:36.634Z,7.43
2018-07-09T03:23:04.486Z,7.50
2018-07-09T03:25:32.467Z,7.60
2018-07-09T03:28:00.241Z,7.20
2018-07-09T03:30:27.982Z,7.63
2018-07-09T03:32:55.751Z,6.60
2018-07-09T03:35:23.517Z,6.33
2018-07-09T03:37:51.237Z,6.30
2018-07-09T03:40:19.034Z,7.00
2018-07-09T03:42:46.802Z,6.80
2018-07-09T03:45:14.563Z,6.40
2018-07-09T03:47:42.303Z,6.60
2018-07-09T03:50:10.100Z,7.10
2018-07-09T03:52:37.753Z,6.47
2018-07-09T03:55:05.532Z,6.37
2018-07-09T03:57:33.985Z,6.13
2018-07-09T04:00:01.864Z,6.43
2018-07-09T04:02:29.695Z,7.43
2018-07-09T04:04:57.482Z,6.40
2018-07-09T04:07:25.317Z,6.93
2018-07-09T04:09:53.083Z,7.20
2018-07-09T04:12:21.022Z,7.20
2018-07-09T04:14:48.882Z,7.00
2018-07-09T04:17:16.573Z,7.60
2018-07-09T04:19:44.334Z,6.80
2018-07-09T04:22:12.148Z,7.33
2018-07-09T04:24:39.816Z,8.07
2018-07-09T04:27:07.671Z,7.63
2018-07-09T04:29:35.716Z,7.90
2018-07-09T04:32:03.471Z,8.60
2018-07-09T04:34:31.271Z,8.53
2018-07-09T04:36:59.010Z,7.90
2018-07-09T04:39:26.754Z,7.67
2018-07-09T04:41:54.564Z,8.50
2018-07-09T04:44:22.277Z,8.47
2018-07-09T04:46:50.149Z,8.70
2018-07-09T04:49:17.907Z,8.70
2018-07-09T04:51:45.718Z,10.30
2018-07-09T04:54:13.434Z,9.80
2018-07-09T04:56:41.161Z,9.60
2018-07-09T04:59:08.878Z,9.57
2018-07-09T05:01:36.674Z,10.40
2018-07-09T05:04:04.505Z,9.70
2018-07-09T05:06:32.303Z,9.87
2018-07-09T05:08:59.975Z,9.27
2018-07-09T05:11:27.686Z,9.63
2018-07-09T05:13:55.479Z,9.70
2018-07-09T05:16:23.417Z,9.73
2018-07-09T05:18:51.175Z,10.30
2018-07-09T05:21:18.964Z,10.40
2018-07-09T05:23:46.736Z,10.17
2018-07-09T05:26:14.478Z,9.17
2018-07-09T05:28:42.284Z,9.57
2018-07-09T05:31:09.990Z,10.00
2018-07-09T05:33:37.719Z,9.33
2018-07-09T05:36:05.623Z,9.83
2018-07-09T05:38:33.502Z,10.00
2018-07-09T05:41:01.301Z,8.70
2018-07-09T05:43:29.121Z,8.90
2018-07-09T05:45:56.999Z,9.90
2018-07-09T05:48:25.331Z,10.20
2018-07-09T05:50:53.130Z,9.40
2018-07-09T05:53:20.951Z,9.47
2018-07-09T05:55:48.760Z,8.90
2018-07-09T05:58:16.569Z,9.27
2018-07-09T06:00:44.332Z,9.10
2018-07-09T06:03:12.098Z,8.73
2018-07-09T06:05:39.859Z,8.07
2018-07-09T06:08:07.630Z,8.50
2018-07-09T06:10:35.347Z,8.43
2018-07-09T06:13:03.170Z,8.67
2018-07-09T06:15:31.051Z,9.00
2018-07-09T06:17:58.835Z,7.83
2018-07-09T06:20:27.017Z,7.70
2018-07-09T06:22:54.842Z,9.20
2018-07-09T06:25:22.727Z,8.37
2018-07-09T06:27:50.555Z,8.90
2018-07-09T06:30:18.329Z,8.30
2018-07-09T06:32:46.168Z,8.77
2018-07-09T06:35:14.050Z,9.30
2018-07-09T06:37:41.864Z,8.33
2018-07-09T06:40:09.645Z,8.00
2018-07-09T06:42:37.495Z,7.60
2018-07-09T06:45:05.316Z,8.70
2018-07-09T06:47:33.130Z,8.83
2018-07-09T06:50:01.299Z,7.07
2018-07-09T06:52:29.411Z,7.47
2018-07-09T06:54:57.231Z,7.10
2018-07-09T06:57:24.955Z,8.13
2018-07-09T06:59:52.771Z,7.57
2018-07-09T07:02:20.540Z,7.50
2018-07-09T07:04:48.381Z,8.70
2018-07-09T07:07:16.151Z,7.80
2018-07-09T07:09:44.020Z,7.00
2018-07-09T07:12:11.825Z,6.87
2018-07-09T07:14:39.863Z,6.20
2018-07-09T07:17:07.679Z,6.27
2018-07-09T07:19:35.494Z,6.70
2018-07-09T07:22:03.249Z,6.00
2018-07-09T07:24:31.051Z,6.50
2018-07-09T07:26:58.835Z,5.90
2018-07-09T07:29:26.657Z,6.50
2018-07-09T07:31:54.411Z,6.20
2018-07-09T07:34:22.244Z,6.13
2018-07-09T07:36:50.018Z,6.60
2018-07-09T07:39:17.854Z,5.77
2018-07-09T07:41:45.576Z,5.87
2018-07-09T07:44:13.388Z,6.00
2018-07-09T07:46:41.182Z,6.13
2018-07-09T07:49:09.004Z,6.50
2018-07-09T07:51:37.064Z,6.93
2018-07-09T07:54:04.982Z,5.50
2018-07-09T07:56:32.719Z,6.13
2018-07-09T07:59:00.423Z,5.60
2018-07-09T08:01:28.543Z,5.23
2018-07-09T08:03:56.313Z,5.13
2018-07-09T08:06:24.010Z,5.43
2018-07-09T08:08:51.779Z,5.60
2018-07-09T08:11:19.592Z,6.63
2018-07-09T08:13:47.380Z,5.60
2018-07-09T08:16:15.477Z,5.40
2018-07-09T08:18:43.254Z,6.87
2018-07-09T08:21:11.064Z,5.77
2018-07-09T08:23:38.795Z,5.53
2018-07-09T08:26:06.613Z,6.23
2018-07-09T08:28:34.315Z,5.50
2018-07-09T08:31:02.236Z,6.70
2018-07-09T08:33:29.884Z,5.73
2018-07-09T08:35:57.694Z,6.00
2018-07-09T08:38:25.427Z,5.90
2018-07-09T08:40:53.179Z,5.10
2018-07-09T08:43:20.840Z,4.77
2018-07-09T08:45:48.540Z,4.60
2018-07-09T08:48:16.257Z,4.87
2018-07-09T08:50:44.046Z,4.27
2018-07-09T08:53:11.802Z,3.87
2018-07-09T08:55:39.494Z,4.23
2018-07-09T08:58:07.402Z,3.70
2018-07-09T09:00:35.204Z,3.83
2018-07-09T09:03:03.034Z,4.23
2018-07-09T09:05:30.832Z,3.67
2018-07-09T09:07:58.582Z,3.50
2018-07-09T09:10:26.421Z,3.20
2018-07-09T09:12:54.204Z,2.70
2018-07-09T09:15:22.003Z,3.30
2018-07-09T09:17:49.906Z,2.77
2018-07-09T09:20:17.887Z,3.10
2018-07-09T09:22:45.703Z,2.70
2018-07-09T09:25:13.479Z,3.17
2018-07-09T09:27:41.278Z,2.90
2018-07-09T09:30:09.058Z,2.60
2018-07-09T09:32:36.802Z,2.87
2018-07-09T09:35:04.889Z,3.33
2018-07-09T09:37:32.604Z,2.80
2018-07-09T09:40:00.405Z,3.10
2018-07-09T09:42:28.184Z,3.10
2018-07-09T09:44:56.000Z,3.20
2018-07-09T09:47:23.930Z,2.97
2018-07-09T09:49:51.629Z,2.80
2018-07-09T09:52:20.280Z,3.10
2018-07-09T09:54:48.036Z,3.50
2018-07-09T09:57:15.795Z,3.37
2018-07-09T09:59:45.060Z,3.30
2018-07-09T10:02:12.838Z,3.37
2018-07-09T10:04:40.574Z,3.17
2018-07-09T10:07:08.332Z,3.33
2018-07-09T10:09:36.091Z,2.97
2018-07-09T10:12:04.006Z,3.33
2018-07-09T10:14:32.004Z,3.27
2018-07-09T10:16:59.945Z,2.93
2018-07-09T10:19:27.878Z,2.87
2018-07-09T10:21:55.635Z,2.80
2018-07-09T10:24:23.490Z,2.97
2018-07-09T10:26:51.259Z,3.17
2018-07-09T10:29:19.008Z,2.30
2018-07-09T10:31:46.786Z,2.47
2018-07-09T10:34:14.546Z,3.10
2018-07-09T10:36:42.260Z,2.87
2018-07-09T10:39:10.012Z,2.70
2018-07-09T10:41:37.789Z,3.00
2018-07-09T10:44:05.602Z,2.47
2018-07-09T10:46:33.375Z,2.90
2018-07-09T10:49:01.125Z,2.60
2018-07-09T10:51:28.897Z,2.83
2018-07-09T10:53:56.808Z,3.20
2018-07-09T10:56:24.715Z,2.37
2018-07-09T10:58:52.496Z,3.00
2018-07-09T11:01:20.406Z,3.00
2018-07-09T11:03:48.175Z,2.70
2018-07-09T11:06:16.290Z,3.20
2018-07-09T11:08:44.018Z,3.97
2018-07-09T11:11:11.769Z,3.53
2018-07-09T11:13:39.575Z,3.83
2018-07-09T11:16:07.402Z,3.27
2018-07-09T11:18:35.560Z,3.27
2018-07-09T11:21:03.483Z,3.20
2018-07-09T11:23:31.215Z,2.80
2018-07-09T11:25:58.915Z,2.70
2018-07-09T11:28:26.789Z,3.00
2018-07-09T11:30:54.529Z,2.63
2018-07-09T11:33:22.314Z,2.63
2018-07-09T11:35:50.078Z,2.90
2018-07-09T11:38:17.790Z,3.07
2018-07-09T11:40:45.540Z,2.73
2018-07-09T11:43:13.302Z,2.93
2018-07-09T11:45:41.058Z,2.70
2018-07-09T11:48:08.834Z,2.67
2018-07-09T11:50:36.709Z,2.23
2018-07-09T11:53:04.623Z,2.40
2018-07-09T11:55:32.426Z,2.00
2018-07-09T11:58:00.171Z,2.60
2018-07-09T12:00:27.980Z,2.47
2018-07-09T12:02:55.719Z,2.47
2018-07-09T12:05:26.831Z,2.27
2018-07-09T12:07:54.672Z,2.50
2018-07-09T12:10:22.384Z,3.30
2018-07-09T12:12:50.080Z,2.67
2018-07-09T12:15:20.504Z,3.47
2018-07-09T12:17:48.157Z,2.50
2018-07-09T12:20:15.883Z,2.70
2018-07-09T12:22:43.626Z,2.60
2018-07-09T12:25:11.387Z,2.80
2018-07-09T12:27:39.383Z,3.33
2018-07-09T12:30:07.217Z,2.87
2018-07-09T12:32:34.995Z,2.30
2018-07-09T12:35:02.802Z,2.40
2018-07-09T12:37:30.626Z,2.77
2018-07-09T12:39:58.390Z,3.10
2018-07-09T12:42:26.170Z,2.90
2018-07-09T12:44:53.954Z,3.07
2018-07-09T12:47:21.762Z,3.37
2018-07-09T12:49:49.530Z,3.67
2018-07-09T12:52:17.264Z,2.90
2018-07-09T12:54:44.962Z,2.97
2018-07-09T12:57:12.771Z,2.97
2018-07-09T12:59:40.503Z,2.90
2018-07-09T13:02:08.161Z,2.40
2018-07-09T13:04:35.865Z,2.97
2018-07-09T13:07:03.735Z,2.77
2018-07-09T13:09:31.454Z,2.07
2018-07-09T13:11:59.257Z,2.10
2018-07-09T13:14:27.011Z,1.93
2018-07-09T13:16:54.890Z,2.63
2018-07-09T13:19:22.637Z,2.67
2018-07-09T13:21:50.448Z,2.33
2018-07-09T13:24:18.242Z,1.90
2018-07-09T13:26:46.037Z,2.30
2018-07-09T13:29:13.802Z,2.33
2018-07-09T13:31:41.624Z,1.73
2018-07-09T13:34:09.443Z,2.53
2018-07-09T13:36:37.268Z,1.83
2018-07-09T13:39:06.108Z,2.30
2018-07-09T13:41:33.854Z,2.00
2018-07-09T13:44:01.620Z,2.00
2018-07-09T13:46:29.341Z,1.60
2018-07-09T13:48:57.281Z,1.60
2018-07-09T13:51:25.217Z,1.87
2018-07-09T13:53:53.134Z,1.73
2018-07-09T13:56:21.343Z,1.60
2018-07-09T13:58:49.093Z,1.77
2018-07-09T14:01:16.834Z,2.50
2018-07-09T14:03:44.581Z,2.20
2018-07-09T14:06:12.322Z,2.10
2018-07-09T14:08:40.007Z,2.00
2018-07-09T14:11:07.790Z,2.30
2018-07-09T14:13:35.533Z,1.70
2018-07-09T14:16:03.268Z,2.17
2018-07-09T14:18:31.090Z,2.20
2018-07-09T14:20:58.835Z,1.90
2018-07-09T14:23:26.589Z,2.00
2018-07-09T14:25:54.322Z,2.33
2018-07-09T14:28:22.087Z,1.60
2018-07-09T14:30:49.870Z,1.73
2018-07-09T14:33:17.587Z,1.80
2018-07-09T14:35:45.359Z,1.50
2018-07-09T14:38:13.128Z,2.23
2018-07-09T14:40:40.852Z,2.20
2018-07-09T14:43:08.493Z,2.00
2018-07-09T14:45:36.583Z,2.00
2018-07-09T14:48:04.400Z,2.73
2018-07-09T14:50:32.074Z,2.10
2018-07-09T14:52:59.862Z,1.70
2018-07-09T14:55:27.588Z,2.20
2018-07-09T14:57:55.368Z,1.87
2018-07-09T15:00:23.161Z,2.17
2018-07-09T15:02:51.554Z,1.80
2018-07-09T15:05:19.310Z,2.50
2018-07-09T15:07:47.154Z,2.07
2018-07-09T15:10:14.801Z,1.90
2018-07-09T15:12:42.592Z,2.00
2018-07-09T15:15:10.249Z,2.13
2018-07-09T15:17:37.990Z,2.00
2018-07-09T15:20:05.806Z,2.00
2018-07-09T15:22:33.555Z,2.00
2018-07-09T15:25:01.306Z,2.70
2018-07-09T15:27:28.923Z,2.17
2018-07-09T15:29:56.626Z,1.90
2018-07-09T15:32:26.466Z,2.70
2018-07-09T15:34:54.466Z,2.10
2018-07-09T15:37:22.223Z,2.23
2018-07-09T15:39:50.042Z,2.10
2018-07-09T15:42:17.962Z,2.60
2018-07-09T15:44:45.745Z,2.10
2018-07-09T15:47:13.469Z,2.67
2018-07-09T15:49:41.975Z,2.17
2018-07-09T15:52:09.733Z,2.40
2018-07-09T15:54:37.485Z,2.10
2018-07-09T15:57:05.255Z,2.23
2018-07-09T15:59:33.330Z,2.00
2018-07-09T16:02:01.042Z,1.90
2018-07-09T16:04:28.958Z,2.90
2018-07-09T16:06:56.688Z,2.30
2018-07-09T16:09:24.519Z,2.20
2018-07-09T16:11:52.256Z,2.60
2018-07-09T16:14:19.988Z,2.20
2018-07-09T16:16:47.718Z,1.90
2018-07-09T16:19:15.442Z,2.10
2018-07-09T16:21:43.164Z,2.33
2018-07-09T16:24:11.268Z,2.10
2018-07-09T16:26:38.934Z,2.00
2018-07-09T16:29:06.761Z,2.90
2018-07-09T16:31:34.482Z,2.30
2018-07-09T16:34:02.225Z,2.27
2018-07-09T16:36:29.946Z,2.10
2018-07-09T16:38:57.640Z,2.10
2018-07-09T16:41:25.435Z,3.00
2018-07-09T16:43:53.167Z,2.50
2018-07-09T16:46:20.879Z,2.67
2018-07-09T16:48:48.598Z,2.60
2018-07-09T16:51:16.367Z,2.10
2018-07-09T16:53:44.064Z,2.77
2018-07-09T16:56:11.790Z,2.10
2018-07-09T16:58:39.499Z,2.00
2018-07-09T17:01:07.315Z,2.70
2018-07-09T17:03:35.043Z,2.33
2018-07-09T17:06:02.686Z,2.27
2018-07-09T17:08:30.431Z,2.30
2018-07-09T17:10:58.202Z,2.63
2018-07-09T17:13:25.894Z,2.30
2018-07-09T17:15:53.607Z,2.50
2018-07-09T17:18:21.359Z,2.23
2018-07-09T17:20:49.066Z,1.90
2018-07-09T17:23:16.780Z,2.30
2018-07-09T17:25:44.591Z,2.93
2018-07-09T17:28:12.216Z,2.57
2018-07-09T17:30:39.938Z,2.10
2018-07-09T17:33:07.675Z,2.37
2018-07-09T17:35:35.407Z,2.60
2018-07-09T17:38:03.161Z,2.10
2018-07-09T17:40:30.906Z,2.50
2018-07-09T17:42:58.639Z,2.20
2018-07-09T17:45:26.269Z,2.47
2018-07-09T17:47:54.015Z,2.40
2018-07-09T17:50:22.384Z,2.10
2018-07-09T17:52:50.139Z,2.17
2018-07-09T17:55:17.914Z,2.03
2018-07-09T17:57:45.970Z,2.10
2018-07-09T18:00:13.951Z,2.27
2018-07-09T18:02:41.723Z,2.03
2018-07-09T18:05:09.385Z,2.47
2018-07-09T18:07:37.145Z,2.20
2018-07-09T18:10:04.910Z,1.90
2018-07-09T18:12:32.654Z,2.03
2018-07-09T18:15:00.398Z,2.13
2018-07-09T18:17:28.099Z,2.67
2018-07-09T18:19:55.780Z,2.60
2018-07-09T18:22:23.542Z,2.07
2018-07-09T18:24:51.269Z,2.07
2018-07-09T18:27:18.982Z,2.30
2018-07-09T18:29:47.029Z,2.73
2018-07-09T18:32:15.137Z,2.30
2018-07-09T18:34:42.780Z,2.47
2018-07-09T18:37:10.547Z,2.10
2018-07-09T18:39:38.330Z,2.43
2018-07-09T18:42:06.401Z,2.33
2018-07-09T18:44:34.051Z,2.80
2018-07-09T18:47:01.816Z,2.80
2018-07-09T18:49:29.726Z,2.00
2018-07-09T18:51:57.451Z,2.17
2018-07-09T18:54:25.136Z,1.90
2018-07-09T18:56:52.980Z,2.93
2018-07-09T18:59:20.874Z,2.50
2018-07-09T19:01:48.624Z,2.60
2018-07-09T19:04:16.325Z,2.17
2018-07-09T19:07:00.713Z,2.90
2018-07-09T19:09:29.378Z,2.43
2018-07-09T19:11:58.421Z,2.17
2018-07-09T19:14:29.350Z,2.37
2018-07-09T19:18:08.345Z,2.53
2018-07-09T19:21:45.293Z,2.50
2018-07-09T19:24:12.475Z,2.20
2018-07-09T19:26:39.703Z,2.63
2018-07-09T19:29:06.411Z,2.10
2018-07-09T19:31:33.095Z,2.37
2018-07-09T19:33:59.987Z,2.20
2018-07-09T19:36:26.740Z,2.10
2018-07-09T19:38:53.390Z,2.30
2018-07-09T19:41:20.054Z,3.03
2018-07-09T19:43:46.794Z,2.40
2018-07-09T19:46:13.489Z,2.60
2018-07-09T19:48:40.221Z,2.60
2018-07-09T19:51:06.976Z,2.37
2018-07-09T19:53:33.652Z,2.83
2018-07-09T19:56:00.406Z,2.27
2018-07-09T19:58:27.551Z,2.70
2018-07-09T20:00:54.276Z,3.20
2018-07-09T20:03:21.531Z,2.17
2018-07-09T20:05:48.126Z,2.90
2018-07-09T20:08:14.857Z,2.80
2018-07-09T20:10:47.283Z,2.47
2018-07-09T20:13:19.638Z,2.97
2018-07-09T20:15:52.203Z,3.10
2018-07-09T20:18:19.172Z,3.30
2018-07-09T20:20:45.853Z,3.47
2018-07-09T20:23:12.558Z,2.93
2018-07-09T20:25:39.194Z,3.20
2018-07-09T20:28:05.915Z,2.97
2018-07-09T20:30:32.534Z,3.00
2018-07-09T20:32:59.251Z,2.90
2018-07-09T20:35:25.857Z,3.07
2018-07-09T20:37:52.592Z,2.80
2018-07-09T20:40:19.267Z,3.57
2018-07-09T20:42:45.986Z,2.97
2018-07-09T20:45:12.686Z,2.90
2018-07-09T20:47:39.358Z,2.77
2018-07-09T20:50:06.082Z,3.40
2018-07-09T20:52:32.767Z,2.90
2018-07-09T20:54:59.886Z,3.93
2018-07-09T20:57:26.504Z,2.60
2018-07-09T20:59:53.228Z,3.40
2018-07-09T21:02:19.881Z,2.70
2018-07-09T21:04:47.106Z,3.03
2018-07-09T21:07:13.775Z,3.00
2018-07-09T21:09:41.167Z,2.80
2018-07-09T21:12:09.070Z,3.17
2018-07-09T21:14:35.784Z,2.90
2018-07-09T21:17:02.453Z,2.90
2018-07-09T21:19:29.198Z,2.93
2018-07-09T21:21:55.920Z,3.10
2018-07-09T21:24:22.626Z,3.60
2018-07-09T21:26:49.345Z,3.63
2018-07-09T21:29:16.014Z,3.53
2018-07-09T21:31:42.693Z,2.70
2018-07-09T21:34:09.489Z,3.37
2018-07-09T21:36:36.638Z,3.43
2018-07-09T21:39:03.974Z,3.33
2018-07-09T21:41:30.646Z,3.23
2018-07-09T21:43:57.395Z,3.30
2018-07-09T21:46:24.050Z,3.23
2018-07-09T21:48:50.763Z,2.97
2018-07-09T21:51:17.453Z,3.47
2018-07-09T21:53:44.127Z,2.90
2018-07-09T21:56:11.245Z,3.83
2018-07-09T21:58:38.005Z,3.23
2018-07-09T22:01:04.805Z,2.93
2018-07-09T22:03:31.496Z,2.83
2018-07-09T22:05:58.646Z,2.67
2018-07-09T22:08:25.399Z,3.67
2018-07-09T22:10:52.034Z,3.07
2018-07-09T22:13:19.117Z,3.40
2018-07-09T22:15:45.807Z,3.23
2018-07-09T22:18:12.984Z,2.80
2018-07-09T22:20:39.695Z,2.70
2018-07-09T22:23:06.330Z,3.37
2018-07-09T22:25:33.006Z,2.80
2018-07-09T22:27:59.659Z,3.43
2018-07-09T22:30:28.937Z,3.07
2018-07-09T22:32:56.680Z,2.87
2018-07-09T22:35:24.327Z,2.80
2018-07-09T22:37:52.239Z,2.63
2018-07-09T22:40:19.970Z,3.20
2018-07-09T22:42:47.569Z,3.80
2018-07-09T22:45:15.294Z,3.03
2018-07-09T22:47:43.069Z,2.97
2018-07-09T22:50:10.865Z,2.90
2018-07-09T22:52:38.643Z,3.33
2018-07-09T22:55:17.809Z,3.20
2018-07-09T22:57:45.422Z,2.83
2018-07-09T23:00:13.962Z,2.80
2018-07-09T23:02:43.677Z,3.00
2018-07-09T23:05:11.478Z,3.00
2018-07-09T23:07:39.290Z,3.90
2018-07-09T23:11:20.550Z,3.00
2018-07-09T23:15:02.530Z,3.10
2018-07-09T23:17:41.954Z,2.90
2018-07-09T23:20:30.821Z,2.80
2018-07-09T23:22:57.977Z,3.00
2018-07-09T23:25:25.128Z,2.60
2018-07-09T23:27:51.851Z,3.30
2018-07-09T23:30:18.512Z,2.93
2018-07-09T23:32:45.711Z,2.97
2018-07-09T23:35:12.401Z,2.60
2018-07-09T23:37:39.592Z,2.80
2018-07-09T23:40:06.319Z,3.50
2018-07-09T23:42:33.070Z,3.50
2018-07-09T23:44:59.809Z,3.70
2018-07-09T23:47:26.546Z,3.27
2018-07-09T23:49:53.226Z,3.13
2018-07-09T23:52:19.963Z,3.20
2018-07-09T23:54:46.639Z,2.87
2018-07-09T23:57:28.513Z,4.00
